Time;durP1;ratioP1;P1;durP2;ratioP2;P2;SDS_P1;SDS_P2;PMS_P1;PMS_P2;Temp;Humidity;BMP_temperature;BMP_pressure;BME280_temperature;BME280_humidity;BME280_pressure;Samples;Min_cycle;Max_cycle;Signal;HPM_P1;HPM_P2
2023/08/01 00:00:08;;;;;;;;;;;;;;;25.22;75.94;99077.84;334168;29;1690;-79
2023/08/01 00:00:18;;;;;;;;;;;;;;;25.22;75.92;99069.81;334586;29;846;-79
2023/08/01 00:00:28;;;;;;;;;;;;;;;25.21;75.77;99068.13;331184;29;2340;-79
2023/08/01 00:00:38;;;;;;;;;;;;;;;25.22;75.80;99072.47;329416;29;2253;-79
2023/08/01 00:00:49;;;;;;;;;;;;;;;25.22;75.32;99069.81;328284;30;1164;-79
2023/08/01 00:00:59;;;;;;;;;;;;;;;25.22;75.20;99075.16;326564;30;2280;-79
2023/08/01 00:01:09;;;;;;;;;;;;;;;25.22;74.39;99069.81;326128;30;2710;-79
2023/08/01 00:01:19;;;;;;;;;;;;;;;25.20;74.10;99069.97;327178;30;801;-79
2023/08/01 00:01:30;;;;;;;;;;;;;;;25.21;73.39;99073.47;324472;30;2267;-79
2023/08/01 00:01:40;;;;;;;;;;;;;;;25.20;73.02;99072.66;326951;30;1764;-81
2023/08/01 00:01:50;;;;;;;;;;;;;;;25.20;72.67;99072.66;328274;30;1361;-80
2023/08/01 00:02:00;;;;;;;;;;;;;;;25.23;72.71;99076.00;325726;30;1177;-80
2023/08/01 00:02:11;;;;;;;;;;;;;;;25.23;72.51;99076.00;324654;30;1586;-80
2023/08/01 00:02:21;;;;;;;;;;;;;;;25.24;72.15;99072.31;323049;30;2184;-80
2023/08/01 00:02:31;;;;;;;;;;;;;;;25.24;72.21;99072.31;323347;30;1170;-80
2023/08/01 00:02:45;;;;;;;;;;;;;;;25.23;72.17;99071.47;321002;30;2979;-80
2023/08/01 00:02:55;;;;;;;;;;;;;;;25.24;71.75;99072.31;319163;30;3336;-80
2023/08/01 00:03:05;;;;;;;;;;;;;;;25.24;71.96;99073.16;317710;31;1225;-80
2023/08/01 00:03:15;;;;;;;;;;;;;;;25.23;71.89;99071.47;317685;30;3379;-80
2023/08/01 00:03:26;;;;;;;;;;;;;;;25.23;71.77;99070.63;316925;31;3117;-80
2023/08/01 00:03:36;;;;;;;;;;;;;;;25.22;71.76;99069.81;315180;30;2904;-80
2023/08/01 00:03:46;;;;;;;;;;;;;;;25.23;71.85;99073.31;315356;31;897;-79
2023/08/01 00:03:56;;;;;;;;;;;;;;;25.23;71.63;99074.16;313282;31;2428;-80
2023/08/01 00:04:07;;;;;;;;;;;;;;;25.23;71.67;99070.63;312716;31;1874;-80
2023/08/01 00:04:17;;;;;;;;;;;;;;;25.23;71.38;99079.50;313951;31;1223;-80
2023/08/01 00:04:27;;;;;;;;;;;;;;;25.24;71.28;99072.31;312294;31;2513;-80
2023/08/01 00:04:37;;;;;;;;;;;;;;;25.24;71.40;99078.50;310127;31;3633;-80
2023/08/01 00:04:48;;;;;;;;;;;;;;;25.24;71.41;99070.47;308735;32;1235;-80
2023/08/01 00:04:58;;;;;;;;;;;;;;;25.24;71.09;99073.16;306471;31;3979;-80
2023/08/01 00:05:08;;;;;;;;;;;;;;;25.26;71.12;99075.66;303821;31;4928;-80
2023/08/01 00:05:18;;;;;;;;;;;;;;;25.26;71.14;99071.13;301386;32;849;-80
2023/08/01 00:05:29;;;;;;;;;;;;;;;25.26;71.17;99071.13;297607;32;4486;-80
2023/08/01 00:05:44;;;;;;;;;;;;;;;25.27;70.93;99074.66;296476;32;4263;-80
2023/08/01 00:05:55;;;;;;;;;;;;;;;25.27;71.12;99067.44;297474;32;3455;-80
2023/08/01 00:06:05;;;;;;;;;;;;;;;25.28;71.09;99079.00;297365;33;1412;-80
2023/08/01 00:06:15;;;;;;;;;;;;;;;25.26;70.51;99076.50;295300;33;3222;-80
2023/08/01 00:06:25;;;;;;;;;;;;;;;25.26;70.84;99076.50;295469;33;2711;-80
2023/08/01 00:06:36;;;;;;;;;;;;;;;25.26;70.58;99071.13;297173;33;1344;-80
2023/08/01 00:06:46;;;;;;;;;;;;;;;25.25;70.74;99074.81;296536;33;810;-80
2023/08/01 00:06:56;;;;;;;;;;;;;;;25.26;70.63;99075.66;293481;33;4736;-80
2023/08/01 00:07:06;;;;;;;;;;;;;;;25.25;70.67;99074.81;292740;33;6334;-80
2023/08/01 00:07:16;;;;;;;;;;;;;;;25.25;70.23;99079.34;294264;33;1321;-80
2023/08/01 00:07:27;;;;;;;;;;;;;;;25.24;70.28;99073.16;290407;33;7245;-80
2023/08/01 00:07:37;;;;;;;;;;;;;;;25.24;70.31;99078.50;288306;33;6978;-79
2023/08/01 00:07:47;;;;;;;;;;;;;;;25.25;70.24;99066.78;287470;34;1239;-80
2023/08/01 00:07:58;;;;;;;;;;;;;;;25.25;70.17;99072.13;288645;33;6505;-80
2023/08/01 00:08:08;;;;;;;;;;;;;;;25.25;70.16;99074.81;286330;34;5524;-80
2023/08/01 00:08:18;;;;;;;;;;;;;;;25.25;70.21;99068.63;283973;34;1051;-80
2023/08/01 00:08:28;;;;;;;;;;;;;;;25.26;70.03;99072.97;284538;34;5512;-81
2023/08/01 00:08:38;;;;;;;;;;;;;;;25.25;69.94;99077.50;283578;34;5059;-80
2023/08/01 00:08:49;;;;;;;;;;;;;;;25.24;69.93;99078.50;283061;35;1296;-80
2023/08/01 00:10:43;;;;;;;;;;;;;;;25.24;69.25;99072.31;2504685;27;19929;-80
2023/08/01 00:10:53;;;;;;;;;;;;;;;25.24;69.14;99077.66;354714;27;1216;-80
2023/08/01 00:11:04;;;;;;;;;;;;;;;25.23;69.07;99067.97;352302;28;1362;-80
2023/08/01 00:11:15;;;;;;;;;;;;;;;25.25;69.07;99073.97;351959;28;1411;-80
2023/08/01 00:11:26;;;;;;;;;;;;;;;25.22;68.71;99069.81;350573;28;1350;-80
2023/08/01 00:11:36;;;;;;;;;;;;;;;25.22;68.84;99069.81;351862;28;1375;-80
2023/08/01 00:11:46;;;;;;;;;;;;;;;25.22;68.69;99071.63;349038;28;1377;-80
2023/08/01 00:11:57;;;;;;;;;;;;;;;25.22;68.55;99072.47;349094;28;1214;-80
2023/08/01 00:12:07;;;;;;;;;;;;;;;25.22;68.56;99069.81;350217;28;1219;-80
2023/08/01 00:12:17;;;;;;;;;;;;;;;25.22;68.45;99069.81;350523;28;1210;-80
2023/08/01 00:12:27;;;;;;;;;;;;;;;25.22;68.25;99068.97;349215;28;1359;-80
2023/08/01 00:12:38;;;;;;;;;;;;;;;25.21;68.14;99073.47;346304;28;1378;-80
2023/08/01 00:12:48;;;;;;;;;;;;;;;25.22;68.20;99074.31;349118;28;1357;-80
2023/08/01 00:12:58;;;;;;;;;;;;;;;25.20;68.12;99072.66;350551;28;1312;-80
2023/08/01 00:13:08;;;;;;;;;;;;;;;25.19;68.17;99060.25;351023;28;806;-80
2023/08/01 00:13:19;;;;;;;;;;;;;;;25.21;68.13;99068.13;352121;28;796;-80
2023/08/01 00:13:29;;;;;;;;;;;;;;;25.20;68.32;99067.28;351628;28;1230;-80
2023/08/01 00:13:40;;;;;;;;;;;;;;;25.21;68.20;99068.13;351947;28;1309;-80
2023/08/01 00:13:50;;;;;;;;;;;;;;;25.21;67.89;99062.78;349120;28;1537;-80
2023/08/01 00:14:01;;;;;;;;;;;;;;;25.22;67.91;99067.13;347924;28;1179;-80
2023/08/01 00:14:11;;;;;;;;;;;;;;;25.21;68.21;99062.78;348944;28;1239;-80
2023/08/01 00:14:24;;;;;;;;;;;;;;;25.21;68.21;99062.78;351071;28;1235;-80
2023/08/01 00:14:35;;;;;;;;;;;;;;;25.20;68.07;99061.09;351658;28;1014;-80
2023/08/01 00:14:46;;;;;;;;;;;;;;;25.19;68.16;99064.78;349701;28;1223;-80
2023/08/01 00:14:57;;;;;;;;;;;;;;;25.20;68.24;99061.09;349044;28;1348;-80
2023/08/01 00:15:07;;;;;;;;;;;;;;;25.20;68.15;99066.44;349663;28;1203;-80
2023/08/01 00:15:18;;;;;;;;;;;;;;;25.22;68.04;99072.47;350430;28;1191;-80
2023/08/01 00:15:28;;;;;;;;;;;;;;;25.20;68.28;99067.28;347765;28;1580;-80
2023/08/01 00:15:38;;;;;;;;;;;;;;;25.20;68.25;99066.44;349176;28;951;-80
2023/08/01 00:15:48;;;;;;;;;;;;;;;25.19;68.30;99054.91;347725;28;1219;-80
2023/08/01 00:15:59;;;;;;;;;;;;;;;25.19;68.40;99056.75;347777;28;1486;-80
2023/08/01 00:16:09;;;;;;;;;;;;;;;25.19;68.49;99064.78;347596;28;1243;-81
2023/08/01 00:16:19;;;;;;;;;;;;;;;25.19;68.42;99070.13;350834;28;1170;-80
2023/08/01 00:16:32;;;;;;;;;;;;;;;25.17;68.54;99061.44;350802;28;875;-80
2023/08/01 00:16:42;;;;;;;;;;;;;;;25.17;68.52;99061.44;347891;28;1275;-81
2023/08/01 00:16:53;;;;;;;;;;;;;;;25.17;68.60;99064.09;346985;28;1217;-80
2023/08/01 00:17:04;;;;;;;;;;;;;;;25.17;68.54;99061.44;348001;28;1240;-80
2023/08/01 00:17:14;;;;;;;;;;;;;;;25.18;68.37;99063.94;347543;28;1073;-80
2023/08/01 00:17:25;;;;;;;;;;;;;;;25.19;68.21;99064.78;349294;28;1238;-80
2023/08/01 00:17:35;;;;;;;;;;;;;;;25.19;68.19;99064.78;349595;28;1195;-80
2023/08/01 00:17:46;;;;;;;;;;;;;;;25.20;68.17;99069.13;346419;28;1224;-81
2023/08/01 00:17:56;;;;;;;;;;;;;;;25.20;68.15;99066.44;348918;28;1306;-80
2023/08/01 00:18:06;;;;;;;;;;;;;;;25.19;68.27;99057.59;347665;28;1296;-80
2023/08/01 00:18:16;;;;;;;;;;;;;;;25.19;67.95;99064.78;350532;28;1262;-80
2023/08/01 00:18:27;;;;;;;;;;;;;;;25.18;68.53;99058.59;346354;28;1444;-80
2023/08/01 00:18:37;;;;;;;;;;;;;;;25.18;68.16;99057.75;345052;28;1226;-81
2023/08/01 00:18:47;;;;;;;;;;;;;;;25.18;68.16;99063.09;344620;28;1419;-80
2023/08/01 00:18:57;;;;;;;;;;;;;;;25.16;68.21;99060.59;341127;28;1207;-79
2023/08/01 00:19:08;;;;;;;;;;;;;;;25.16;68.33;99060.59;341664;28;1328;-79
2023/08/01 00:19:18;;;;;;;;;;;;;;;25.15;68.31;99068.78;342440;28;1599;-79
2023/08/01 00:19:28;;;;;;;;;;;;;;;25.15;68.44;99058.09;344776;28;1258;-80
2023/08/01 00:19:38;;;;;;;;;;;;;;;25.14;68.20;99057.25;339780;28;1383;-80
2023/08/01 00:19:48;;;;;;;;;;;;;;;25.13;68.40;99055.56;342251;28;1242;-80
2023/08/01 00:19:59;;;;;;;;;;;;;;;25.15;68.70;99058.09;342856;28;801;-79
2023/08/01 00:20:09;;;;;;;;;;;;;;;25.15;68.43;99056.25;342116;28;1293;-79
2023/08/01 00:20:19;;;;;;;;;;;;;;;25.16;68.49;99060.59;340526;29;1227;-79
2023/08/01 00:20:30;;;;;;;;;;;;;;;25.16;68.81;99063.28;337206;29;1369;-79
2023/08/01 00:20:41;;;;;;;;;;;;;;;25.15;68.43;99066.97;341645;28;1399;-80
2023/08/01 00:20:54;;;;;;;;;;;;;;;25.17;68.56;99058.75;338655;29;1675;-79
2023/08/01 00:21:09;;;;;;;;;;;;;;;25.18;68.37;99057.75;335995;28;1758;-79
2023/08/01 00:21:20;;;;;;;;;;;;;;;25.17;68.41;99061.44;334664;29;1793;-79
2023/08/01 00:21:31;;;;;;;;;;;;;;;25.16;68.26;99060.59;335774;29;1263;-79
2023/08/01 00:21:42;;;;;;;;;;;;;;;25.16;68.49;99049.03;335782;29;1906;-80
2023/08/01 00:21:52;;;;;;;;;;;;;;;25.15;68.18;99058.09;334407;29;1536;-80
2023/08/01 00:22:02;;;;;;;;;;;;;;;25.15;68.29;99058.09;333274;29;1426;-80
2023/08/01 00:22:12;;;;;;;;;;;;;;;25.16;68.11;99059.75;335631;29;1235;-80
2023/08/01 00:22:23;;;;;;;;;;;;;;;25.13;68.18;99055.56;336932;29;1266;-81
2023/08/01 00:22:33;;;;;;;;;;;;;;;25.11;68.34;99059.47;335861;29;1695;-80
2023/08/01 00:22:44;;;;;;;;;;;;;;;25.11;68.00;99057.63;334682;29;1220;-80
2023/08/01 00:22:54;;;;;;;;;;;;;;;25.12;68.16;99058.44;329826;29;2039;-80
2023/08/01 00:23:04;;;;;;;;;;;;;;;25.12;68.17;99058.44;326169;30;2207;-80
2023/08/01 00:23:14;;;;;;;;;;;;;;;25.12;68.27;99053.09;325785;30;1315;-80
2023/08/01 00:23:25;;;;;;;;;;;;;;;25.12;68.07;99050.41;328103;30;2381;-80
2023/08/01 00:23:35;;;;;;;;;;;;;;;25.12;68.18;99055.78;327532;30;2195;-80
2023/08/01 00:23:45;;;;;;;;;;;;;;;25.11;68.14;99051.44;324632;30;1275;-81
2023/08/01 00:23:56;;;;;;;;;;;;;;;25.12;68.12;99058.44;324246;30;2366;-80
2023/08/01 00:24:07;;;;;;;;;;;;;;;25.12;68.21;99058.44;323202;30;1926;-80
2023/08/01 00:24:18;;;;;;;;;;;;;;;25.12;68.48;99050.41;324668;30;1425;-80
2023/08/01 00:24:28;;;;;;;;;;;;;;;25.13;68.32;99050.22;322260;30;1209;-80
2023/08/01 00:24:38;;;;;;;;;;;;;;;25.13;68.20;99052.91;321858;30;1978;-80
2023/08/01 00:24:48;;;;;;;;;;;;;;;25.12;68.40;99055.78;320312;30;2342;-80
2023/08/01 00:24:59;;;;;;;;;;;;;;;25.12;68.06;99053.09;318882;31;1244;-80
2023/08/01 00:25:09;;;;;;;;;;;;;;;25.11;68.00;99046.91;316074;31;2855;-80
2023/08/01 00:25:19;;;;;;;;;;;;;;;25.12;67.98;99051.25;315712;30;3123;-80
2023/08/01 00:25:30;;;;;;;;;;;;;;;25.12;68.02;99053.94;318906;31;1012;-80
2023/08/01 00:25:40;;;;;;;;;;;;;;;25.13;68.08;99054.75;317499;31;3231;-79
2023/08/01 00:25:51;;;;;;;;;;;;;;;25.10;68.02;99052.44;315308;31;2839;-79
2023/08/01 00:26:01;;;;;;;;;;;;;;;25.10;68.02;99057.78;316595;31;885;-80
2023/08/01 00:26:12;;;;;;;;;;;;;;;25.10;68.06;99055.09;319119;30;2656;-79
2023/08/01 00:26:22;;;;;;;;;;;;;;;25.09;68.02;99048.91;317219;31;2217;-79
2023/08/01 00:26:33;;;;;;;;;;;;;;;25.09;67.70;99051.59;315781;31;2066;-79
2023/08/01 00:26:43;;;;;;;;;;;;;;;25.09;68.02;99050.75;318864;31;774;-80
2023/08/01 00:26:55;;;;;;;;;;;;;;;25.09;67.48;99050.75;312416;31;2762;-80
2023/08/01 00:27:08;;;;;;;;;;;;;;;25.09;67.85;99054.28;311556;31;3085;-80
2023/08/01 00:27:19;;;;;;;;;;;;;;;25.09;67.95;99050.75;312098;31;4474;-80
2023/08/01 00:27:29;;;;;;;;;;;;;;;25.10;67.97;99060.47;312144;31;744;-80
2023/08/01 00:27:39;;;;;;;;;;;;;;;25.09;67.46;99053.44;310261;31;4331;-79
2023/08/01 00:27:51;;;;;;;;;;;;;;;25.09;67.81;99059.63;310454;31;4527;-79
2023/08/01 00:28:01;;;;;;;;;;;;;;;25.09;67.63;99050.75;310996;31;910;-79
2023/08/01 00:28:13;;;;;;;;;;;;;;;25.08;67.71;99052.59;306958;32;4235;-80
2023/08/01 00:28:23;;;;;;;;;;;;;;;25.08;67.50;99055.28;305411;32;3654;-80
2023/08/01 00:28:33;;;;;;;;;;;;;;;25.08;67.21;99054.44;303497;32;2943;-79
2023/08/01 00:28:44;;;;;;;;;;;;;;;25.07;67.24;99053.59;303558;32;824;-79
2023/08/01 00:28:54;;;;;;;;;;;;;;;25.07;67.20;99050.09;300716;32;3266;-79
2023/08/01 00:29:04;;;;;;;;;;;;;;;25.06;67.22;99053.78;299419;32;3849;-79
2023/08/01 00:29:14;;;;;;;;;;;;;;;25.07;67.37;99052.75;297174;33;1322;-80
2023/08/01 00:29:25;;;;;;;;;;;;;;;25.07;67.20;99050.09;295435;33;5443;-80
2023/08/01 00:29:35;;;;;;;;;;;;;;;25.07;67.14;99047.41;293348;33;5517;-80
2023/08/01 00:29:45;;;;;;;;;;;;;;;25.06;67.22;99048.41;294116;33;1248;-80
2023/08/01 00:29:55;;;;;;;;;;;;;;;25.06;67.27;99053.78;290378;33;6640;-80
2023/08/01 00:30:06;;;;;;;;;;;;;;;25.06;67.30;99054.59;288718;33;7803;-80
2023/08/01 00:30:17;;;;;;;;;;;;;;;25.05;67.38;99046.75;289554;34;1258;-80
2023/08/01 00:30:27;;;;;;;;;;;;;;;25.06;67.10;99056.44;291236;33;6755;-80
2023/08/01 00:30:37;;;;;;;;;;;;;;;25.06;67.33;99054.59;291504;33;5035;-79
2023/08/01 00:30:47;;;;;;;;;;;;;;;25.06;67.33;99054.59;292062;33;3950;-79
2023/08/01 00:31:10;;;;;;;;;;;;;;;25.06;67.43;99053.78;292466;33;1103;-79
2023/08/01 00:31:20;;;;;;;;;;;;;;;25.06;66.94;99059.97;288489;33;6411;-79
2023/08/01 00:31:31;;;;;;;;;;;;;;;25.07;66.94;99055.44;289189;34;1313;-80
2023/08/01 00:31:41;;;;;;;;;;;;;;;25.08;67.02;99049.91;286030;34;7942;-79
2023/08/01 00:33:25;;;;;;;;;;;;;;;25.09;66.95;99048.91;2501419;27;19927;-79
2023/08/01 00:33:35;;;;;;;;;;;;;;;25.09;67.28;99048.06;354734;27;953;-79
2023/08/01 00:33:46;;;;;;;;;;;;;;;25.09;67.04;99048.06;353593;28;808;-79
2023/08/01 00:33:56;;;;;;;;;;;;;;;25.08;66.80;99052.59;351874;28;1217;-79
2023/08/01 00:34:06;;;;;;;;;;;;;;;25.06;66.68;99049.25;350402;28;1189;-79
2023/08/01 00:34:18;;;;;;;;;;;;;;;25.07;66.68;99050.09;349010;28;897;-79
2023/08/01 00:34:28;;;;;;;;;;;;;;;25.06;66.67;99048.41;350321;28;1253;-79
2023/08/01 00:34:38;;;;;;;;;;;;;;;25.05;66.76;99052.09;347761;28;1222;-80
2023/08/01 00:34:50;;;;;;;;;;;;;;;25.04;66.45;99048.59;347943;28;1289;-80
2023/08/01 00:35:00;;;;;;;;;;;;;;;25.04;66.43;99051.25;346213;28;1312;-79
2023/08/01 00:35:10;;;;;;;;;;;;;;;25.05;66.61;99046.75;346276;28;1265;-79
2023/08/01 00:35:21;;;;;;;;;;;;;;;25.05;66.70;99046.75;348634;28;892;-80
2023/08/01 00:35:31;;;;;;;;;;;;;;;25.05;66.37;99052.94;348801;28;1645;-79
2023/08/01 00:35:41;;;;;;;;;;;;;;;25.05;66.61;99052.09;348091;28;1218;-79
2023/08/01 00:35:54;;;;;;;;;;;;;;;25.06;66.54;99048.41;350255;28;812;-79
2023/08/01 00:36:09;;;;;;;;;;;;;;;25.05;66.57;99047.56;350253;28;1233;-80
2023/08/01 00:36:19;;;;;;;;;;;;;;;25.06;66.60;99043.06;348963;28;1149;-79
2023/08/01 00:36:29;;;;;;;;;;;;;;;25.06;66.85;99045.72;349247;28;907;-79
2023/08/01 00:36:39;;;;;;;;;;;;;;;25.07;66.44;99047.41;346237;28;1318;-79
2023/08/01 00:36:49;;;;;;;;;;;;;;;25.07;66.72;99044.72;349146;28;1223;-80
2023/08/01 00:37:00;;;;;;;;;;;;;;;25.08;66.61;99046.41;348859;28;1318;-80
2023/08/01 00:37:10;;;;;;;;;;;;;;;25.08;66.70;99044.56;347681;28;1294;-80
2023/08/01 00:37:21;;;;;;;;;;;;;;;25.08;66.49;99043.72;343706;28;1332;-79
2023/08/01 00:37:31;;;;;;;;;;;;;;;25.08;66.60;99046.41;345223;28;803;-79
2023/08/01 00:37:41;;;;;;;;;;;;;;;25.09;66.78;99042.72;347783;28;1230;-80
2023/08/01 00:37:51;;;;;;;;;;;;;;;25.09;66.57;99051.59;347342;28;981;-80
2023/08/01 00:38:02;;;;;;;;;;;;;;;25.09;66.53;99048.06;346199;28;1233;-80
2023/08/01 00:38:12;;;;;;;;;;;;;;;25.10;66.56;99047.06;347575;28;1316;-80
2023/08/01 00:38:22;;;;;;;;;;;;;;;25.09;66.43;99050.75;345915;28;1243;-79
2023/08/01 00:38:32;;;;;;;;;;;;;;;25.09;66.58;99048.06;343632;28;1341;-79
2023/08/01 00:38:43;;;;;;;;;;;;;;;25.09;66.85;99042.72;345067;28;1301;-79
2023/08/01 00:38:53;;;;;;;;;;;;;;;25.09;66.61;99045.41;347656;28;1310;-79
2023/08/01 00:39:03;;;;;;;;;;;;;;;25.09;66.62;99048.06;349496;28;1362;-79
2023/08/01 00:39:14;;;;;;;;;;;;;;;25.08;66.87;99047.25;351859;28;941;-81
2023/08/01 00:39:24;;;;;;;;;;;;;;;25.08;66.56;99041.88;350443;28;1274;-80
2023/08/01 00:39:34;;;;;;;;;;;;;;;25.09;66.73;99048.06;347514;28;1383;-80
2023/08/01 00:39:44;;;;;;;;;;;;;;;25.09;66.77;99045.41;344783;28;1311;-80
2023/08/01 00:39:55;;;;;;;;;;;;;;;25.09;66.93;99045.41;342608;28;888;-80
2023/08/01 00:40:05;;;;;;;;;;;;;;;25.09;66.88;99042.72;342524;28;1271;-80
2023/08/01 00:40:17;;;;;;;;;;;;;;;25.08;66.88;99041.88;344935;28;1218;-80
2023/08/01 00:40:31;;;;;;;;;;;;;;;25.07;67.02;99044.72;347660;28;1349;-80
2023/08/01 00:40:41;;;;;;;;;;;;;;;25.07;66.66;99044.72;343755;28;1363;-80
2023/08/01 00:40:51;;;;;;;;;;;;;;;25.07;66.83;99044.72;347374;28;1305;-80
2023/08/01 00:41:01;;;;;;;;;;;;;;;25.06;67.04;99043.06;345351;28;1165;-80
2023/08/01 00:41:12;;;;;;;;;;;;;;;25.06;66.89;99043.06;346281;28;1276;-80
2023/08/01 00:41:22;;;;;;;;;;;;;;;25.06;67.09;99043.91;343454;28;1275;-80
2023/08/01 00:41:32;;;;;;;;;;;;;;;25.06;66.96;99046.56;342881;28;1307;-80
2023/08/01 00:41:42;;;;;;;;;;;;;;;25.08;66.67;99046.41;342802;28;1119;-80
2023/08/01 00:41:53;;;;;;;;;;;;;;;25.07;66.70;99045.56;343548;28;1222;-80
2023/08/01 00:42:03;;;;;;;;;;;;;;;25.07;66.93;99045.56;343177;28;1382;-80
2023/08/01 00:42:14;;;;;;;;;;;;;;;25.07;67.12;99047.41;346228;28;1335;-80
2023/08/01 00:42:24;;;;;;;;;;;;;;;25.06;66.79;99045.72;344909;28;1258;-80
2023/08/01 00:42:37;;;;;;;;;;;;;;;25.07;66.88;99050.09;344629;28;1317;-80
2023/08/01 00:42:48;;;;;;;;;;;;;;;25.04;67.08;99045.91;343639;28;1315;-79
2023/08/01 00:42:58;;;;;;;;;;;;;;;25.05;67.14;99038.69;342296;28;1344;-79
2023/08/01 00:43:09;;;;;;;;;;;;;;;25.05;66.82;99046.75;342258;28;1193;-81
2023/08/01 00:43:19;;;;;;;;;;;;;;;25.04;66.92;99045.91;344085;28;1626;-79
2023/08/01 00:43:29;;;;;;;;;;;;;;;25.05;67.11;99041.38;343341;28;1804;-79
2023/08/01 00:43:39;;;;;;;;;;;;;;;25.04;66.75;99043.22;340117;29;1303;-79
2023/08/01 00:43:50;;;;;;;;;;;;;;;25.05;66.89;99046.75;335963;29;1756;-80
2023/08/01 00:44:00;;;;;;;;;;;;;;;25.04;66.96;99034.34;335950;29;1804;-79
2023/08/01 00:44:10;;;;;;;;;;;;;;;25.05;67.00;99042.22;337032;29;1271;-79
2023/08/01 00:44:21;;;;;;;;;;;;;;;25.06;66.86;99048.41;335756;29;1720;-79
2023/08/01 00:44:31;;;;;;;;;;;;;;;25.05;66.98;99042.22;337353;29;1468;-79
2023/08/01 00:44:41;;;;;;;;;;;;;;;25.05;66.98;99046.75;338445;29;1329;-79
2023/08/01 00:44:53;;;;;;;;;;;;;;;25.07;67.06;99039.38;335238;29;1343;-80
2023/08/01 00:45:04;;;;;;;;;;;;;;;25.07;66.91;99042.88;338329;29;1434;-79
2023/08/01 00:45:14;;;;;;;;;;;;;;;25.07;67.00;99039.38;336972;29;1516;-79
2023/08/01 00:45:26;;;;;;;;;;;;;;;25.08;66.92;99049.91;335770;29;1221;-79
2023/08/01 00:45:36;;;;;;;;;;;;;;;25.07;67.41;99050.09;331664;29;1950;-79
2023/08/01 00:45:46;;;;;;;;;;;;;;;25.06;67.08;99045.72;328135;29;2195;-79
2023/08/01 00:45:59;;;;;;;;;;;;;;;25.06;66.98;99049.25;330846;29;1208;-82
2023/08/01 00:46:10;;;;;;;;;;;;;;;25.05;66.88;99044.06;328297;30;1255;-80
2023/08/01 00:46:20;;;;;;;;;;;;;;;25.03;66.65;99038.03;328162;29;2151;-80
2023/08/01 00:46:30;;;;;;;;;;;;;;;25.02;66.56;99049.75;326879;30;2318;-80
2023/08/01 00:46:40;;;;;;;;;;;;;;;25.00;66.51;99039.22;328354;30;1335;-80
2023/08/01 00:46:51;;;;;;;;;;;;;;;24.99;66.96;99047.41;328269;30;1827;-80
2023/08/01 00:47:01;;;;;;;;;;;;;;;24.99;67.09;99042.06;326685;30;1317;-81
2023/08/01 00:47:11;;;;;;;;;;;;;;;24.99;67.07;99042.88;325814;30;1253;-80
2023/08/01 00:47:21;;;;;;;;;;;;;;;24.99;66.86;99036.69;321100;30;1942;-80
2023/08/01 00:47:32;;;;;;;;;;;;;;;24.97;67.01;99042.22;319934;30;2548;-80
2023/08/01 00:47:42;;;;;;;;;;;;;;;24.97;67.28;99038.72;322545;30;856;-80
2023/08/01 00:47:53;;;;;;;;;;;;;;;24.97;67.09;99039.53;318195;30;2608;-80
2023/08/01 00:48:03;;;;;;;;;;;;;;;24.97;66.94;99041.38;315602;30;3079;-81
2023/08/01 00:48:13;;;;;;;;;;;;;;;24.96;67.16;99042.38;312994;31;1197;-81
2023/08/01 00:48:24;;;;;;;;;;;;;;;24.96;67.28;99047.75;318796;30;2762;-80
2023/08/01 00:48:34;;;;;;;;;;;;;;;24.93;67.29;99043.53;318676;30;3094;-80
2023/08/01 00:48:44;;;;;;;;;;;;;;;24.93;67.39;99037.34;318536;30;2688;-80
2023/08/01 00:48:57;;;;;;;;;;;;;;;24.92;67.30;99041.84;319057;31;1502;-80
2023/08/01 00:49:08;;;;;;;;;;;;;;;24.93;67.33;99042.69;317035;31;2434;-80
2023/08/01 00:49:18;;;;;;;;;;;;;;;24.93;67.22;99032.81;315353;31;1805;-80
2023/08/01 00:49:28;;;;;;;;;;;;;;;24.93;67.37;99038.16;312133;31;1237;-80
2023/08/01 00:49:39;;;;;;;;;;;;;;;24.93;67.50;99038.16;316476;31;2418;-80
2023/08/01 00:49:49;;;;;;;;;;;;;;;24.94;67.52;99039.84;314997;31;3651;-80
2023/08/01 00:49:59;;;;;;;;;;;;;;;24.95;67.29;99041.53;310653;31;4217;-80
2023/08/01 00:50:09;;;;;;;;;;;;;;;24.97;67.36;99044.06;306523;32;1223;-80
2023/08/01 00:50:21;;;;;;;;;;;;;;;24.96;67.21;99042.38;303702;32;4439;-80
2023/08/01 00:50:32;;;;;;;;;;;;;;;24.97;67.38;99038.72;303944;32;3666;-80
2023/08/01 00:50:42;;;;;;;;;;;;;;;24.95;67.43;99038.84;303659;32;1433;-81
2023/08/01 00:50:52;;;;;;;;;;;;;;;24.96;67.26;99042.38;306100;32;4998;-80
2023/08/01 00:51:06;;;;;;;;;;;;;;;24.95;67.53;99035.31;306320;31;3634;-80
2023/08/01 00:51:18;;;;;;;;;;;;;;;24.94;67.15;99036.34;307628;31;3348;-80
2023/08/01 00:51:28;;;;;;;;;;;;;;;24.93;67.36;99038.16;307057;32;816;-80
2023/08/01 00:51:38;;;;;;;;;;;;;;;24.93;67.33;99037.34;301533;32;3219;-80
2023/08/01 00:51:48;;;;;;;;;;;;;;;24.93;67.46;99037.34;301220;32;3675;-80
2023/08/01 00:51:59;;;;;;;;;;;;;;;24.95;67.57;99035.31;301307;32;1433;-81
2023/08/01 00:52:09;;;;;;;;;;;;;;;24.95;67.52;99038.84;298496;32;5231;-80
2023/08/01 00:52:19;;;;;;;;;;;;;;;24.95;67.30;99041.53;295569;33;6678;-80
2023/08/01 00:52:30;;;;;;;;;;;;;;;24.95;67.26;99038.00;290498;33;6306;-80
2023/08/01 00:52:40;;;;;;;;;;;;;;;24.95;67.00;99038.84;290352;34;903;-80
2023/08/01 00:52:50;;;;;;;;;;;;;;;24.96;67.16;99043.22;285746;34;5791;-80
2023/08/01 00:53:00;;;;;;;;;;;;;;;24.96;67.18;99031.69;284133;34;7499;-80
2023/08/01 00:53:11;;;;;;;;;;;;;;;24.95;67.14;99035.31;285514;34;1254;-81
2023/08/01 00:53:21;;;;;;;;;;;;;;;24.94;67.11;99039.00;285890;34;5728;-81
2023/08/01 00:53:31;;;;;;;;;;;;;;;24.94;67.18;99033.66;284148;34;6062;-80
2023/08/01 00:53:41;;;;;;;;;;;;;;;24.94;67.11;99033.66;282101;35;1371;-80
2023/08/01 00:53:52;;;;;;;;;;;;;;;24.94;67.28;99037.16;277978;35;5679;-81
2023/08/01 00:55:37;;;;;;;;;;;;;;;24.97;67.67;99033.34;2504695;27;20009;-79
2023/08/01 00:55:48;;;;;;;;;;;;;;;24.97;67.51;99028.84;353151;27;1217;-80
2023/08/01 00:55:58;;;;;;;;;;;;;;;24.97;67.71;99028.00;352147;28;973;-79
2023/08/01 00:56:09;;;;;;;;;;;;;;;24.96;67.77;99027.16;350540;28;758;-80
2023/08/01 00:56:19;;;;;;;;;;;;;;;24.97;67.51;99036.03;350636;28;1069;-80
2023/08/01 00:56:29;;;;;;;;;;;;;;;24.96;67.93;99031.69;350508;28;1356;-79
2023/08/01 00:56:39;;;;;;;;;;;;;;;24.96;67.96;99026.31;350434;28;1323;-79
2023/08/01 00:56:50;;;;;;;;;;;;;;;24.96;67.73;99032.50;349479;28;1041;-79
2023/08/01 00:57:00;;;;;;;;;;;;;;;24.96;67.83;99034.34;347741;28;918;-79
2023/08/01 00:57:10;;;;;;;;;;;;;;;24.96;67.73;99031.69;346414;28;1228;-79
2023/08/01 00:57:21;;;;;;;;;;;;;;;24.96;67.79;99031.69;349223;28;1309;-79
2023/08/01 00:57:31;;;;;;;;;;;;;;;24.95;67.97;99021.94;350819;28;1189;-79
2023/08/01 00:57:41;;;;;;;;;;;;;;;24.95;67.85;99030.81;351871;28;1302;-79
2023/08/01 00:57:51;;;;;;;;;;;;;;;24.96;67.69;99031.69;353291;28;1308;-79
2023/08/01 00:58:02;;;;;;;;;;;;;;;24.95;68.02;99029.97;352061;28;911;-79
2023/08/01 00:58:12;;;;;;;;;;;;;;;24.95;67.84;99036.16;352163;28;1123;-80
2023/08/01 00:58:22;;;;;;;;;;;;;;;24.96;68.01;99031.69;349200;28;1314;-80
2023/08/01 00:58:32;;;;;;;;;;;;;;;24.95;67.96;99029.97;350497;28;1450;-80
2023/08/01 00:58:43;;;;;;;;;;;;;;;24.94;68.00;99028.28;351763;28;1395;-80
2023/08/01 00:58:53;;;;;;;;;;;;;;;24.92;67.66;99041.03;350600;28;1305;-80
2023/08/01 00:59:04;;;;;;;;;;;;;;;24.92;67.82;99030.31;350279;28;1279;-80
2023/08/01 00:59:15;;;;;;;;;;;;;;;24.90;67.87;99032.31;351579;28;1369;-80
2023/08/01 00:59:25;;;;;;;;;;;;;;;24.89;68.07;99031.47;349298;28;1437;-80
2023/08/01 00:59:36;;;;;;;;;;;;;;;24.88;67.82;99030.66;351768;28;1241;-80
2023/08/01 00:59:46;;;;;;;;;;;;;;;24.88;67.96;99027.97;351359;28;988;-80
2023/08/01 00:59:57;;;;;;;;;;;;;;;24.90;67.69;99033.16;350630;28;1174;-80
2023/08/01 01:00:07;;;;;;;;;;;;;;;24.90;67.79;99024.28;349255;28;824;-80
2023/08/01 01:00:17;;;;;;;;;;;;;;;24.90;67.52;99026.97;350438;28;1266;-80
2023/08/01 01:00:28;;;;;;;;;;;;;;;24.91;67.60;99024.13;348983;28;1314;-80
2023/08/01 01:00:39;;;;;;;;;;;;;;;24.91;67.84;99025.97;349177;28;1268;-79
2023/08/01 01:00:49;;;;;;;;;;;;;;;24.91;67.34;99028.63;349167;28;1258;-79
2023/08/01 01:00:59;;;;;;;;;;;;;;;24.91;67.38;99023.28;348233;28;1219;-79
2023/08/01 01:01:09;;;;;;;;;;;;;;;24.91;67.32;99026.78;347711;28;1329;-80
2023/08/01 01:01:20;;;;;;;;;;;;;;;24.91;67.12;99031.31;349142;28;859;-79